Time;durP1;ratioP1;P1;durP2;ratioP2;P2;SDS_P1;SDS_P2;PMS_P1;PMS_P2;Temp;Humidity;BMP_temperature;BMP_pressure;BME280_temperature;BME280_humidity;BME280_pressure;Samples;Min_cycle;Max_cycle;Signal;HPM_P1;HPM_P2
2022/01/15 00:01:29;;;;;;;19.38;12.43;;;;;;;3.13;89.33;100356.72;4827735;29;20102;-87
2022/01/15 00:03:54;;;;;;;19.02;11.30;;;;;;;3.15;89.40;100367.09;4826648;29;20064;-87
2022/01/15 00:06:20;;;;;;;18.65;10.95;;;;;;;3.16;89.06;100355.56;4841614;29;20030;-87
2022/01/15 00:08:49;;;;;;;15.63;10.50;;;;;;;3.14;89.24;100354.91;4841279;29;20102;-87
2022/01/15 00:11:14;;;;;;;19.15;12.05;;;;;;;3.12;89.31;100359.53;4842076;29;20372;-89
2022/01/15 00:13:43;;;;;;;20.10;11.98;;;;;;;3.16;89.20;100361.69;4832278;29;20053;-84
2022/01/15 00:16:24;;;;;;;19.95;11.63;;;;;;;3.17;88.92;100373.06;4823820;29;20030;-87
2022/01/15 00:19:08;;;;;;;16.63;10.63;;;;;;;3.18;88.86;100372.06;4825408;29;20065;-86
2022/01/15 00:21:34;;;;;;;15.57;10.48;;;;;;;3.17;88.99;100375.69;4827172;29;20030;-86
2022/01/15 00:23:59;;;;;;;15.90;10.70;;;;;;;3.16;89.21;100374.88;4826178;29;20435;-86
2022/01/15 00:26:25;;;;;;;14.80;9.98;;;;;;;3.17;88.76;100365.16;4842734;29;20034;-85
2022/01/15 00:28:50;;;;;;;17.63;10.45;;;;;;;3.18;89.02;100364.97;4827184;29;20044;-85
2022/01/15 00:31:15;;;;;;;19.83;11.65;;;;;;;3.16;89.21;100366.13;4842125;29;20498;-84
2022/01/15 00:33:41;;;;;;;14.43;9.43;;;;;;;3.17;89.28;100367.78;4827102;29;20125;-84
2022/01/15 00:36:06;;;;;;;17.00;10.85;;;;;;;3.17;89.01;100365.16;4826822;29;20453;-84
2022/01/15 00:38:32;;;;;;;17.05;10.60;;;;;;;3.16;88.92;100374.03;4826308;29;20518;-85
2022/01/15 00:40:58;;;;;;;17.77;10.48;;;;;;;3.16;89.41;100374.88;4830165;29;20109;-86
2022/01/15 00:43:26;;;;;;;18.13;10.25;;;;;;;3.16;88.86;100368.75;4830721;29;20030;-85
2022/01/15 00:45:52;;;;;;;18.45;11.73;;;;;;;3.14;89.02;100354.91;4843847;29;20491;-86
2022/01/15 00:48:17;;;;;;;17.52;10.30;;;;;;;3.19;88.84;100357.91;4812147;29;20030;-85
2022/01/15 00:50:43;;;;;;;18.88;11.40;;;;;;;3.17;89.19;100368.59;4825998;29;20034;-85
2022/01/15 00:53:09;;;;;;;18.00;11.85;;;;;;;3.18;88.50;100364.97;4840961;29;20033;-84
2022/01/15 00:55:35;;;;;;;17.42;10.95;;;;;;;3.21;88.94;100362.00;4811404;29;20555;-85
2022/01/15 00:58:00;;;;;;;18.73;11.75;;;;;;;3.10;88.25;100340.41;4841573;29;20079;-85
2022/01/15 01:00:26;;;;;;;18.50;11.48;;;;;;;3.19;89.00;100357.91;4811249;29;20030;-85
2022/01/15 01:02:53;;;;;;;19.38;11.57;;;;;;;3.18;89.07;100354.44;4810878;29;20052;-84
2022/01/15 01:05:20;;;;;;;19.85;11.88;;;;;;;3.14;89.36;100341.72;4810966;29;20026;-85
2022/01/15 01:07:46;;;;;;;19.15;11.73;;;;;;;3.22;89.18;100352.28;4825998;29;20049;-85
2022/01/15 01:13:08;;;;;;;18.75;11.90;;;;;;;3.03;88.84;100317.34;4841265;29;20124;-85
2022/01/15 01:21:27;;;;;;;17.13;10.90;;;;;;;3.21;88.93;100343.53;4839780;29;20109;-85
2022/01/15 01:23:48;;;;;;;18.25;10.90;;;;;;;3.21;89.45;100351.44;4840864;29;20042;-85
2022/01/15 01:28:57;;;;;;;21.88;13.13;;;;;;;3.21;89.33;100348.81;4842482;29;20061;-85
2022/01/15 01:31:31;;;;;;;21.08;12.77;;;;;;;3.13;89.93;100335.63;4826767;29;20038;-85
2022/01/15 01:34:06;;;;;;;16.98;10.93;;;;;;;3.11;89.31;100331.50;4812626;29;20130;-85
2022/01/15 01:36:58;;;;;;;22.13;13.27;;;;;;;3.23;89.22;100351.31;4841084;29;20061;-85
2022/01/15 01:39:31;;;;;;;19.25;11.93;;;;;;;3.23;89.17;100351.31;4840893;29;20030;-86
2022/01/15 01:42:36;;;;;;;20.85;12.23;;;;;;;3.20;89.17;100339.25;4812646;29;20030;-86
2022/01/15 01:45:12;;;;;;;19.75;11.45;;;;;;;3.12;89.33;100322.59;4830024;29;20033;-86
2022/01/15 01:47:40;;;;;;;19.17;11.77;;;;;;;3.08;89.45;100322.09;4826127;29;20516;-86
2022/01/15 01:50:21;;;;;;;21.85;11.63;;;;;;;3.02;89.45;100313.03;4840632;29;20046;-87
2022/01/15 01:52:50;;;;;;;17.42;11.75;;;;;;;3.06;89.34;100308.25;4825796;29;20045;-86
2022/01/15 01:55:17;;;;;;;20.05;11.75;;;;;;;3.18;89.03;100311.38;4825742;29;20514;-86
2022/01/15 01:57:43;;;;;;;20.35;12.73;;;;;;;3.23;89.21;100319.63;4825627;29;20256;-86
2022/01/15 02:00:12;;;;;;;17.58;11.63;;;;;;;3.24;89.38;100313.34;4841715;29;20061;-86
2022/01/15 02:02:38;;;;;;;20.98;12.27;;;;;;;3.24;89.32;100321.28;4840057;29;20026;-86
2022/01/15 02:05:04;;;;;;;20.05;11.90;;;;;;;3.25;89.51;100310.56;4824760;29;20045;-85
2022/01/15 02:07:29;;;;;;;22.13;12.43;;;;;;;2.62;88.97;100215.44;4826678;29;20432;-85
2022/01/15 02:09:57;;;;;;;20.08;12.18;;;;;;;3.25;89.40;100323.78;4839571;29;20038;-86
2022/01/15 02:12:22;;;;;;;19.30;11.57;;;;;;;3.25;89.40;100307.09;4839949;29;20105;-86
2022/01/15 02:14:48;;;;;;;21.25;12.80;;;;;;;3.24;88.73;100314.19;4824613;29;20518;-87
2022/01/15 02:17:17;;;;;;;20.08;12.20;;;;;;;3.23;89.22;100315.19;4855598;29;20038;-87
2022/01/15 02:20:08;;;;;;;19.77;11.90;;;;;;;3.26;88.84;100308.75;4821799;29;20680;-87
2022/01/15 02:25:17;;;;;;;20.23;12.50;;;;;;;3.19;89.14;100287.47;4840739;29;20105;-87
2022/01/15 02:27:42;;;;;;;21.10;12.40;;;;;;;3.25;89.27;100296.56;4839445;29;20022;-87
2022/01/15 02:30:08;;;;;;;19.38;11.63;;;;;;;3.25;89.53;100283.34;4852313;29;20030;-88
2022/01/15 02:32:36;;;;;;;18.48;12.15;;;;;;;3.24;89.06;100279.06;4824046;29;20042;-88
2022/01/15 02:35:03;;;;;;;22.80;13.15;;;;;;;3.25;89.03;100286.00;4824563;29;20049;-87
2022/01/15 02:37:30;;;;;;;22.30;11.82;;;;;;;3.15;89.79;100256.31;4824874;29;20426;-87
2022/01/15 02:39:57;;;;;;;17.40;11.77;;;;;;;3.27;88.85;100276.94;4819657;29;20030;-85
2022/01/15 02:42:25;;;;;;;19.60;12.25;;;;;;;3.29;89.20;100287.31;4824739;29;20030;-85
2022/01/15 02:44:58;;;;;;;19.35;11.80;;;;;;;3.31;89.25;100285.31;4826454;29;20025;-84
2022/01/15 02:50:08;;;;;;;20.48;13.07;;;;;;;3.27;89.18;100279.56;4837485;29;20041;-85
2022/01/15 02:52:34;;;;;;;23.10;13.38;;;;;;;3.27;89.45;100282.22;4827752;29;20038;-86
2022/01/15 02:54:59;;;;;;;22.02;13.30;;;;;;;3.28;89.07;100275.09;4812967;29;20038;-86
2022/01/15 02:57:25;;;;;;;21.50;13.43;;;;;;;3.29;89.25;100268.84;4842298;29;20535;-85
2022/01/15 02:59:50;;;;;;;20.90;12.73;;;;;;;3.28;88.73;100273.28;4827014;29;20486;-86
2022/01/15 03:02:15;;;;;;;22.42;13.38;;;;;;;3.29;88.88;100271.47;4811486;29;20038;-85
2022/01/15 03:04:41;;;;;;;24.52;14.55;;;;;;;3.25;88.74;100251.72;4827391;29;20037;-85
2022/01/15 03:07:06;;;;;;;22.10;13.32;;;;;;;3.29;89.59;100264.41;4827045;29;20045;-86
2022/01/15 03:09:32;;;;;;;21.75;13.77;;;;;;;3.16;89.01;100235.06;4827607;29;20427;-85
2022/01/15 03:12:02;;;;;;;20.65;12.63;;;;;;;3.25;88.51;100254.34;4828767;29;20022;-89
2022/01/15 03:14:30;;;;;;;23.33;14.18;;;;;;;3.26;88.81;100266.53;4824689;29;20073;-89
2022/01/15 03:16:55;;;;;;;21.42;13.30;;;;;;;3.27;88.86;100258.47;4826244;29;20037;-88
2022/01/15 03:19:21;;;;;;;28.25;14.18;;;;;;;2.90;89.43;100195.72;4812478;29;20037;-85
2022/01/15 03:21:46;;;;;;;21.58;13.07;;;;;;;3.28;89.00;100256.63;4828339;29;20418;-85
2022/01/15 03:24:12;;;;;;;25.38;14.25;;;;;;;3.21;88.97;100238.00;4843545;29;20034;-86
2022/01/15 03:26:37;;;;;;;22.15;13.43;;;;;;;3.27;88.98;100249.72;4845656;29;20037;-87
2022/01/15 03:29:02;;;;;;;25.08;13.57;;;;;;;2.65;89.00;100149.25;4839156;29;20080;-87
2022/01/15 03:31:28;;;;;;;21.52;13.05;;;;;;;3.27;89.00;100247.91;4831809;29;20089;-89
2022/01/15 03:33:53;;;;;;;23.08;13.02;;;;;;;2.73;88.93;100157.13;4830142;29;20065;-90
2022/01/15 03:36:19;;;;;;;22.92;13.77;;;;;;;2.73;89.06;100153.72;4826415;29;20127;-87
2022/01/15 03:38:44;;;;;;;23.17;13.98;;;;;;;3.28;89.32;100232.88;4826706;29;20037;-87
2022/01/15 03:41:10;;;;;;;27.13;14.27;;;;;;;3.28;88.88;100238.16;4826233;29;20045;-86
2022/01/15 03:43:35;;;;;;;25.90;15.85;;;;;;;3.21;88.93;100226.66;4826326;29;20098;-86
2022/01/15 03:46:01;;;;;;;25.02;14.18;;;;;;;3.27;89.35;100236.53;4826380;29;20034;-88
2022/01/15 03:48:27;;;;;;;23.27;14.00;;;;;;;3.30;89.07;100236.19;4826665;29;20089;-87
2022/01/15 03:50:53;;;;;;;23.00;12.98;;;;;;;3.31;89.00;100235.19;4826725;29;20414;-88
2022/01/15 03:53:21;;;;;;;25.50;13.98;;;;;;;3.31;88.80;100232.56;4842079;29;20505;-88
2022/01/15 03:55:47;;;;;;;25.27;14.50;;;;;;;3.30;88.84;100225.66;4826346;29;20034;-88
2022/01/15 03:58:12;;;;;;;22.92;13.10;;;;;;;3.25;89.35;100220.88;4841895;29;20030;-88
2022/01/15 04:00:38;;;;;;;23.90;13.52;;;;;;;2.80;88.55;100144.94;4826139;29;20030;-88
2022/01/15 04:03:04;;;;;;;27.65;15.02;;;;;;;3.30;88.67;100221.19;4826370;29;20125;-89
2022/01/15 04:05:30;;;;;;;25.35;14.43;;;;;;;3.31;88.98;100225.47;4842333;29;20037;-89
2022/01/15 04:07:55;;;;;;;24.80;13.52;;;;;;;3.31;89.10;100222.00;4826589;29;20453;-90
2022/01/15 04:10:21;;;;;;;22.67;14.73;;;;;;;3.28;88.74;100212.59;4825777;29;20038;-88
2022/01/15 04:12:47;;;;;;;26.20;14.98;;;;;;;3.30;88.70;100212.47;4826579;29;20038;-88
2022/01/15 04:15:14;;;;;;;23.10;13.10;;;;;;;3.32;89.07;100210.47;4841176;29;20102;-87
2022/01/15 04:17:44;;;;;;;22.20;12.10;;;;;;;3.27;88.91;100208.34;4821533;29;20117;-88
2022/01/15 04:20:10;;;;;;;22.42;13.82;;;;;;;3.20;89.04;100201.25;4825932;29;20045;-86
2022/01/15 04:22:36;;;;;;;25.15;14.02;;;;;;;3.30;88.82;100215.91;4825390;29;20419;-85
2022/01/15 04:25:04;;;;;;;24.27;15.02;;;;;;;3.31;88.87;100216.72;4825834;29;20041;-86
2022/01/15 04:27:30;;;;;;;22.25;13.65;;;;;;;3.31;88.63;100211.44;4840727;29;20034;-86
2022/01/15 04:29:56;;;;;;;25.33;13.93;;;;;;;3.31;89.17;100214.09;4822971;29;20500;-85
2022/01/15 04:32:22;;;;;;;24.92;14.10;;;;;;;3.19;88.85;100186.44;4832885;29;20039;-85
2022/01/15 04:34:48;;;;;;;24.40;14.50;;;;;;;3.25;89.15;100197.13;4822510;29;20090;-86
2022/01/15 04:37:21;;;;;;;23.77;14.05;;;;;;;3.34;89.04;100211.13;4810715;29;20043;-86
2022/01/15 04:39:46;;;;;;;24.60;13.93;;;;;;;3.31;89.34;100207.00;4826424;29;20496;-86
2022/01/15 04:42:12;;;;;;;22.77;13.15;;;;;;;3.31;89.10;100207.00;4824992;29;20026;-86
2022/01/15 04:44:38;;;;;;;22.60;13.35;;;;;;;3.33;89.17;100206.81;4842052;29;20530;-86
2022/01/15 04:47:04;;;;;;;25.50;14.70;;;;;;;3.34;89.62;100211.13;4823677;29;20129;-86
2022/01/15 04:49:31;;;;;;;27.52;16.08;;;;;;;3.33;88.95;100201.53;4825836;29;20114;-86
2022/01/15 04:51:56;;;;;;;24.70;12.98;;;;;;;3.21;89.11;100195.00;4840196;29;20128;-85
2022/01/15 04:54:22;;;;;;;24.05;13.98;;;;;;;3.22;89.04;100194.81;4825546;29;20129;-86
2022/01/15 04:56:47;;;;;;;24.17;14.55;;;;;;;3.19;89.11;100181.16;4840562;29;20082;-87
2022/01/15 04:59:12;;;;;;;22.08;13.18;;;;;;;2.83;88.84;100120.91;4827893;29;20089;-87
2022/01/15 05:01:38;;;;;;;22.88;13.32;;;;;;;3.31;88.79;100204.38;4809541;29;20170;-87
2022/01/15 05:04:03;;;;;;;21.60;13.38;;;;;;;3.31;89.23;100207.00;4829050;29;20034;-88
2022/01/15 05:06:29;;;;;;;25.27;14.02;;;;;;;3.32;89.14;100213.09;4811601;29;20491;-87
2022/01/15 05:09:03;;;;;;;27.00;15.20;;;;;;;3.01;89.06;100170.81;4824986;29;20507;-87
2022/01/15 05:11:33;;;;;;;26.85;14.77;;;;;;;3.33;89.10;100217.38;4825713;29;20045;-87
2022/01/15 05:13:58;;;;;;;24.13;13.43;;;;;;;3.17;89.17;100196.31;4825992;29;20056;-87
2022/01/15 05:16:24;;;;;;;24.90;14.15;;;;;;;3.30;89.34;100215.09;4826665;29;20029;-86
2022/01/15 05:18:49;;;;;;;25.23;14.50;;;;;;;3.25;89.13;100196.31;4826269;29;20632;-87
2022/01/15 05:21:14;;;;;;;29.95;14.57;;;;;;;3.33;89.28;100207.66;4814691;29;20034;-87
2022/01/15 05:23:40;;;;;;;27.10;15.63;;;;;;;3.33;88.79;100210.28;4825734;29;20109;-87
2022/01/15 05:26:05;;;;;;;26.92;15.25;;;;;;;3.25;89.09;100188.38;4825706;29;20041;-87
2022/01/15 06:42:08;;;;;;;23.10;12.02;;;;;;;3.21;89.36;100187.09;4847081;29;20042;-87
2022/01/15 06:50:08;;;;;;;22.45;13.35;;;;;;;3.11;89.05;100152.13;4861797;29;20424;-90
2022/01/15 06:52:36;;;;;;;21.13;12.70;;;;;;;3.34;89.08;100192.66;4867206;29;20098;-89
2022/01/15 06:55:03;;;;;;;21.48;12.70;;;;;;;3.01;89.16;100150.50;4871031;29;20433;-90
2022/01/15 06:57:29;;;;;;;23.83;13.45;;;;;;;2.72;89.37;100099.31;4862890;29;20203;-90
2022/01/15 06:59:56;;;;;;;23.10;13.13;;;;;;;3.25;88.99;100175.19;4848492;29;20082;-89
2022/01/15 07:02:22;;;;;;;19.80;12.05;;;;;;;3.25;89.28;100169.91;4855474;29;20063;-89
2022/01/15 07:04:47;;;;;;;24.80;14.20;;;;;;;3.39;89.40;100199.06;4831378;29;20074;-90
2022/01/15 07:07:16;;;;;;;22.13;12.85;;;;;;;3.38;88.62;100186.88;4852496;29;20476;-90
2022/01/15 07:09:44;;;;;;;26.08;14.02;;;;;;;2.88;88.84;100102.75;4852495;29;20467;-90
2022/01/15 07:12:12;;;;;;;22.90;13.30;;;;;;;3.39;88.32;100191.16;4852146;29;20037;-90
2022/01/15 07:14:37;;;;;;;22.85;12.43;;;;;;;3.33;89.03;100180.44;4854824;29;20037;-90
2022/01/15 07:17:03;;;;;;;22.58;14.02;;;;;;;3.09;88.65;100138.28;4850005;29;20050;-89
2022/01/15 07:19:31;;;;;;;28.60;15.15;;;;;;;2.96;89.01;100126.47;4854360;29;20041;-90
2022/01/15 07:21:56;;;;;;;26.08;13.65;;;;;;;3.37;89.08;100187.84;4846787;29;20037;-89
2022/01/15 07:24:22;;;;;;;22.50;14.00;;;;;;;3.37;89.34;100192.31;4847638;29;20030;-89
2022/01/15 07:26:50;;;;;;;25.23;14.15;;;;;;;3.22;88.65;100171.06;4843934;29;20041;-89
2022/01/15 07:29:18;;;;;;;26.45;15.27;;;;;;;3.13;89.09;100155.44;4847996;29;20033;-90
2022/01/15 07:31:47;;;;;;;25.30;14.15;;;;;;;2.72;88.79;100086.97;4844016;29;20037;-89
2022/01/15 07:34:14;;;;;;;23.52;13.93;;;;;;;2.63;89.20;100069.53;4865912;29;20038;-90
2022/01/15 07:36:40;;;;;;;24.75;13.88;;;;;;;3.13;89.06;100136.97;4845507;29;20479;-90
2022/01/15 07:39:07;;;;;;;27.58;16.45;;;;;;;3.23;89.15;100153.44;4831647;29;20129;-89
2022/01/15 07:41:33;;;;;;;27.63;15.95;;;;;;;3.03;89.05;100124.81;4845497;29;20037;-89
2022/01/15 07:43:59;;;;;;;24.15;14.18;;;;;;;3.40;88.78;100178.78;4848892;29;20054;-89
2022/01/15 07:46:25;;;;;;;27.23;15.05;;;;;;;3.06;88.56;100122.81;4865334;29;20026;-89
2022/01/15 07:48:51;;;;;;;27.40;15.48;;;;;;;2.81;89.12;100079.88;4845087;29;20672;-88
2022/01/15 07:51:17;;;;;;;25.08;14.90;;;;;;;3.26;88.89;100145.16;4840954;29;20144;-87
2022/01/15 07:53:43;;;;;;;23.55;13.95;;;;;;;3.38;88.57;100167.56;4851761;29;20060;-87
2022/01/15 07:56:08;;;;;;;25.33;14.75;;;;;;;3.08;88.88;100115.56;4848565;29;20044;-87
2022/01/15 07:58:33;;;;;;;27.70;15.48;;;;;;;3.42;89.25;100177.63;4864137;29;20037;-87
2022/01/15 08:00:59;;;;;;;28.40;16.75;;;;;;;3.16;89.11;100131.38;4844836;29;20399;-89
2022/01/15 08:03:24;;;;;;;23.00;13.85;;;;;;;2.81;88.78;100080.69;4861185;29;20546;-88
2022/01/15 08:05:50;;;;;;;27.50;14.77;;;;;;;3.09;88.73;100117.19;4861608;29;20040;-89
2022/01/15 08:08:16;;;;;;;25.20;15.27;;;;;;;3.15;89.45;100133.16;4861338;29;20547;-89
2022/01/15 08:10:42;;;;;;;27.25;15.18;;;;;;;2.99;88.63;100106.84;4859661;29;20037;-89
2022/01/15 08:13:08;;;;;;;26.83;15.23;;;;;;;2.63;88.78;100051.06;4860684;29;20030;-89
2022/01/15 08:15:33;;;;;;;25.63;14.75;;;;;;;2.92;89.31;100095.34;4860957;29;20029;-90
2022/01/15 08:17:59;;;;;;;25.42;15.13;;;;;;;3.28;89.04;100144.00;4849329;29;20411;-90
2022/01/15 08:20:25;;;;;;;28.88;15.55;;;;;;;3.07;89.44;100114.75;4847552;29;20152;-89
2022/01/15 08:22:51;;;;;;;25.65;14.57;;;;;;;3.25;89.30;100148.81;4845950;29;20102;-90
2022/01/15 08:25:18;;;;;;;27.73;15.73;;;;;;;3.45;88.82;100179.91;4854605;29;20038;-90
2022/01/15 08:27:44;;;;;;;26.85;14.98;;;;;;;3.41;88.66;100177.78;4853134;29;20550;-90
2022/01/15 08:30:10;;;;;;;26.85;15.63;;;;;;;3.08;88.86;100124.28;4854843;29;20026;-90
2022/01/15 08:32:45;;;;;;;27.13;14.63;;;;;;;3.15;89.23;100133.16;4859604;29;20375;-90
2022/01/15 08:35:14;;;;;;;27.88;15.35;;;;;;;2.67;89.19;100051.56;4844351;29;20029;-90
2022/01/15 08:37:40;;;;;;;27.55;15.93;;;;;;;3.19;89.51;100131.03;4872846;29;20076;-90
2022/01/15 08:40:25;;;;;;;28.33;15.98;;;;;;;2.81;88.68;100078.06;4871519;29;20032;-89
2022/01/15 08:42:50;;;;;;;23.23;14.68;;;;;;;3.21;88.79;100129.06;4862363;29;20033;-89
2022/01/15 08:45:28;;;;;;;24.08;14.50;;;;;;;3.25;88.97;100144.38;4865289;29;20052;-89
2022/01/15 08:47:57;;;;;;;26.48;13.73;;;;;;;2.93;89.04;100089.06;4851562;29;20033;-88
2022/01/15 08:50:25;;;;;;;28.23;15.02;;;;;;;3.01;88.79;100110.16;4858419;29;20459;-89
2022/01/15 08:52:53;;;;;;;48.97;15.80;;;;;;;3.22;88.82;100143.88;4844968;29;20372;-89
2022/01/15 08:55:20;;;;;;;39.85;14.38;;;;;;;3.11;88.64;100116.03;4883381;29;20040;-90
2022/01/15 08:57:46;;;;;;;36.88;15.80;;;;;;;3.55;89.58;100203.47;4857415;29;20040;-89
2022/01/15 09:00:16;;;;;;;32.42;14.32;;;;;;;3.27;88.98;100144.19;4878806;29;20037;-89
2022/01/15 09:02:44;;;;;;;27.23;14.18;;;;;;;3.35;89.30;100152.91;4877233;29;20024;-89
2022/01/15 09:08:38;;;;;;;;;;;;;;;;;;;;;
2022/01/15 09:11:21;;;;;;;25.13;13.25;;;;;;;3.40;89.12;100160.31;4874008;29;20057;-90
2022/01/15 09:13:48;;;;;;;28.95;14.30;;;;;;;2.86;89.73;100065.19;4846795;29;20148;-89
2022/01/15 09:16:15;;;;;;;22.15;13.25;;;;;;;3.34;89.35;100147.81;4851239;29;20026;-88
2022/01/15 09:18:41;;;;;;;27.40;14.80;;;;;;;3.17;89.08;100123.28;4853083;29;20030;-89
2022/01/15 09:33:58;;;;;;;25.02;14.95;;;;;;;3.66;89.59;100185.44;5096677;23;20060;-86
2022/01/15 09:36:23;;;;;;;24.35;14.52;;;;;;;3.69;89.29;100179.00;4843021;29;20037;-85
2022/01/15 09:38:49;;;;;;;26.55;15.25;;;;;;;3.69;89.11;100184.28;4841283;29;20092;-85
2022/01/15 09:41:15;;;;;;;26.95;14.82;;;;;;;3.70;89.53;100181.47;4854902;29;20483;-85
2022/01/15 09:43:42;;;;;;;27.33;15.57;;;;;;;3.74;89.34;100187.22;4873534;29;20093;-85
2022/01/15 09:46:09;;;;;;;31.25;15.82;;;;;;;3.76;89.26;100177.31;4858071;29;20033;-86
2022/01/15 09:48:38;;;;;;;26.90;14.95;;;;;;;3.77;89.54;100171.88;4860212;29;20033;-85
2022/01/15 09:51:05;;;;;;;23.33;14.50;;;;;;;3.79;89.03;100171.69;4843691;29;20045;-88
2022/01/15 09:53:33;;;;;;;25.27;14.68;;;;;;;3.76;89.19;100172.03;4857638;29;20030;-85
2022/01/15 09:55:59;;;;;;;26.67;15.40;;;;;;;3.82;89.22;100171.34;4837145;29;20522;-85
2022/01/15 09:58:25;;;;;;;24.48;14.00;;;;;;;3.80;89.48;100160.13;4846852;29;20042;-85
2022/01/15 10:00:56;;;;;;;23.83;13.13;;;;;;;3.86;89.46;100164.72;4862625;29;20171;-85
2022/01/15 10:03:22;;;;;;;24.30;13.63;;;;;;;3.84;89.50;100161.44;4862686;29;20684;-85
2022/01/15 10:05:49;;;;;;;21.88;13.43;;;;;;;3.87;89.27;100171.66;4846939;29;20041;-84
2022/01/15 10:08:19;;;;;;;23.70;14.05;;;;;;;3.88;88.98;100159.25;4845151;29;20185;-84
2022/01/15 10:10:50;;;;;;;20.02;12.95;;;;;;;3.89;89.45;100150.38;4850930;29;20076;-84
2022/01/15 10:13:20;;;;;;;26.20;14.65;;;;;;;3.88;89.27;100152.19;4850589;29;20578;-85
2022/01/15 10:16:08;;;;;;;25.40;14.35;;;;;;;3.83;89.00;100149.22;4861038;29;20040;-84
2022/01/15 10:18:43;;;;;;;26.75;13.93;;;;;;;3.88;89.43;100154.81;4875917;29;20423;-85
2022/01/15 10:21:13;;;;;;;27.88;15.68;;;;;;;3.86;89.01;100138.31;4862206;29;21031;-85
2022/01/15 10:23:56;;;;;;;32.42;16.85;;;;;;;3.91;89.17;100141.25;4845944;29;20457;-85
2022/01/15 10:26:26;;;;;;;29.95;16.23;;;;;;;3.94;89.57;100156.75;4843680;29;20038;-85
2022/01/15 10:29:03;;;;;;;27.70;15.80;;;;;;;3.94;89.32;100148.00;4845892;29;20121;-84
2022/01/15 10:31:40;;;;;;;26.52;15.00;;;;;;;3.95;89.36;100150.50;4846637;29;20555;-85
2022/01/15 10:34:29;;;;;;;26.77;15.20;;;;;;;3.95;89.08;100147.84;4864472;29;20031;-85
2022/01/15 10:37:08;;;;;;;25.02;14.95;;;;;;;3.96;89.27;100148.66;4847118;29;20066;-86
2022/01/15 10:39:34;;;;;;;24.73;14.73;;;;;;;3.97;88.81;100150.31;4864996;29;20026;-85
2022/01/15 10:41:59;;;;;;;21.05;13.10;;;;;;;3.98;89.53;100141.38;4863235;29;20042;-85
2022/01/15 10:44:35;;;;;;;19.63;12.38;;;;;;;3.99;89.17;100135.09;4830851;29;20496;-84
2022/01/15 10:47:04;;;;;;;;;;;;;;;3.97;89.60;100137.94;4839134;29;20062;-85
2022/01/15 10:49:29;;;;;;;20.60;12.23;;;;;;;3.99;89.59;100135.94;4859286;29;19954;-84
2022/01/15 10:52:17;;;;;;;21.58;12.38;;;;;;;3.98;89.12;100133.44;4865647;29;20029;-85
2022/01/15 10:54:54;;;;;;;18.08;12.55;;;;;;;4.03;89.08;100131.94;4865882;29;20033;-85
2022/01/15 10:57:26;;;;;;;19.40;12.32;;;;;;;4.02;88.94;100125.00;4866688;29;20053;-85
2022/01/15 10:59:59;;;;;;;16.60;12.52;;;;;;;4.06;89.02;100118.41;4863109;29;20057;-84
2022/01/15 11:02:25;;;;;;;18.38;11.45;;;;;;;4.11;88.96;100123.13;4862197;29;20045;-84
2022/01/15 11:04:50;;;;;;;18.30;11.07;;;;;;;4.14;88.75;100122.78;4864435;29;20056;-84
2022/01/15 11:07:17;;;;;;;15.27;10.93;;;;;;;4.15;89.04;100116.53;4844907;29;20068;-84
2022/01/15 11:09:44;;;;;;;18.48;10.77;;;;;;;4.17;88.89;100111.88;4864496;29;20097;-83
2022/01/15 11:12:11;;;;;;;15.65;10.70;;;;;;;4.17;88.30;100099.47;4865319;29;20116;-84
2022/01/15 11:14:37;;;;;;;9.90;7.07;;;;;;;4.19;88.35;100096.66;4847246;29;20087;-85
2022/01/15 11:17:04;;;;;;;11.82;6.60;;;;;;;4.12;88.97;100096.56;4861496;29;20033;-85
2022/01/15 11:19:31;;;;;;;10.65;6.72;;;;;;;4.21;88.12;100103.44;4848234;29;20553;-85
2022/01/15 11:22:01;;;;;;;9.55;6.28;;;;;;;4.18;88.07;100095.00;4863111;29;20038;-85
2022/01/15 11:24:27;;;;;;;9.52;6.57;;;;;;;4.22;88.04;100101.56;4846288;29;20030;-85
2022/01/15 11:26:57;;;;;;;9.95;6.95;;;;;;;4.25;87.78;100095.94;4860950;29;20038;-86
2022/01/15 11:31:53;;;;;;;9.88;5.57;;;;;;;4.19;88.13;100079.00;4856098;29;20768;-86
2022/01/15 11:34:20;;;;;;;7.43;4.88;;;;;;;4.22;87.40;100083.91;4821659;29;20026;-84
2022/01/15 11:36:47;;;;;;;6.68;4.95;;;;;;;4.28;87.81;100085.84;4848115;29;20025;-83
2022/01/15 11:39:18;;;;;;;7.15;4.55;;;;;;;4.28;87.46;100090.31;4854280;29;20444;-84
2022/01/15 11:41:48;;;;;;;6.00;4.35;;;;;;;4.29;87.21;100087.50;4830645;29;20038;-85
2022/01/15 11:44:18;;;;;;;5.95;3.63;;;;;;;4.18;87.04;100069.41;4832875;29;20034;-85
2022/01/15 11:46:51;;;;;;;6.95;4.30;;;;;;;4.32;87.53;100083.69;4848145;29;20036;-85
2022/01/15 11:49:37;;;;;;;4.88;3.92;;;;;;;4.31;87.30;100074.09;4861850;29;20112;-85
2022/01/15 11:52:12;;;;;;;5.88;3.63;;;;;;;4.33;87.00;100077.38;4835910;29;20097;-85
2022/01/15 11:55:05;;;;;;;4.93;4.07;;;;;;;4.34;86.84;100076.41;4844572;29;20054;-86
2022/01/15 11:57:33;;;;;;;5.65;4.15;;;;;;;4.35;86.71;100075.38;4831632;29;20124;-87
2022/01/15 12:00:23;;;;;;;6.65;4.45;;;;;;;4.33;87.50;100069.44;4845380;29;20037;-87
2022/01/15 12:02:58;;;;;;;6.45;4.65;;;;;;;4.34;87.00;100068.47;4844231;29;20086;-86
2022/01/15 12:05:25;;;;;;;4.93;4.47;;;;;;;4.33;87.51;100067.63;4825565;29;20108;-85
2022/01/15 12:08:04;;;;;;;6.82;4.95;;;;;;;4.32;87.56;100066.00;4854501;29;20030;-86
2022/01/15 12:10:41;;;;;;;5.95;4.30;;;;;;;4.33;87.09;100054.41;4859343;29;20510;-86
2022/01/15 12:13:23;;;;;;;4.53;3.90;;;;;;;4.33;87.11;100048.31;4844769;29;20402;-86
2022/01/15 12:16:29;;;;;;;7.50;5.05;;;;;;;4.34;86.87;100052.59;4843980;29;20042;-85
2022/01/15 12:18:58;;;;;;;5.72;5.22;;;;;;;4.36;87.42;100051.44;4845425;29;20034;-86
2022/01/15 12:21:47;;;;;;;6.60;4.55;;;;;;;4.35;87.06;100047.13;4859730;29;20030;-85
2022/01/15 12:24:39;;;;;;;3.85;3.45;;;;;;;4.34;86.95;100042.88;4845035;29;20097;-86
2022/01/15 12:27:15;;;;;;;5.28;4.20;;;;;;;4.34;86.83;100042.88;4828980;29;20344;-86
2022/01/15 12:29:41;;;;;;;6.05;4.30;;;;;;;4.34;87.31;100036.75;4844118;29;20106;-87
2022/01/15 12:32:07;;;;;;;5.38;4.22;;;;;;;4.19;87.05;100006.84;4843973;29;20045;-85
2022/01/15 12:34:33;;;;;;;5.47;3.75;;;;;;;4.34;86.45;100027.00;4829578;29;20057;-85
2022/01/15 12:36:58;;;;;;;4.22;3.83;;;;;;;4.25;86.48;99998.19;4844957;29;20041;-86
2022/01/15 12:39:50;;;;;;;5.35;4.45;;;;;;;4.35;86.77;100025.16;4828039;29;20133;-86
2022/01/15 12:42:17;;;;;;;6.45;4.07;;;;;;;4.32;86.58;100007.88;4842034;29;20094;-86
2022/01/15 12:44:47;;;;;;;7.53;4.85;;;;;;;4.36;87.24;100006.50;4829494;29;20029;-86
2022/01/15 12:47:14;;;;;;;6.25;4.35;;;;;;;4.38;87.01;100004.50;4843752;29;20036;-85
2022/01/15 12:49:48;;;;;;;5.70;4.22;;;;;;;4.39;86.87;100002.69;4857915;29;20074;-85
2022/01/15 12:52:25;;;;;;;5.80;3.97;;;;;;;4.41;86.60;99996.19;4843750;29;20097;-85
2022/01/15 12:54:53;;;;;;;5.70;4.40;;;;;;;4.41;86.96;99993.56;4831042;29;20038;-85
2022/01/15 12:57:40;;;;;;;7.43;4.70;;;;;;;4.40;87.13;99993.75;4859882;29;20098;-85
2022/01/15 13:00:12;;;;;;;5.57;4.30;;;;;;;4.40;86.34;99994.56;4850368;29;20032;-84
2022/01/15 13:02:38;;;;;;;9.35;4.60;;;;;;;4.41;86.91;99998.84;4844319;29;20042;-85
2022/01/15 13:05:04;;;;;;;6.53;4.65;;;;;;;4.43;86.34;99999.47;4843130;29;20037;-84
2022/01/15 13:07:53;;;;;;;9.70;4.93;;;;;;;4.33;86.66;99980.44;4857681;29;20501;-85
2022/01/15 13:10:35;;;;;;;5.00;4.05;;;;;;;4.43;86.74;99993.38;4858322;29;20025;-84
2022/01/15 13:13:02;;;;;;;6.45;4.10;;;;;;;4.42;86.36;99992.56;4834396;29;20506;-86
2022/01/15 13:15:30;;;;;;;6.32;3.70;;;;;;;4.42;86.99;99989.91;4843717;29;20030;-85
2022/01/15 13:17:56;;;;;;;4.43;3.83;;;;;;;4.34;86.41;99973.31;4844731;29;20048;-86
2022/01/15 13:20:34;;;;;;;4.22;3.28;;;;;;;4.42;86.65;99984.63;4834895;29;20040;-86
2022/01/15 13:23:02;;;;;;;39.42;7.43;;;;;;;4.41;86.67;99980.34;4827969;29;20455;-86
2022/01/15 13:25:29;;;;;;;20.25;7.03;;;;;;;4.43;86.12;99978.31;4857529;29;20030;-84